EHRD/RTM METAR and TAF weather

Enter ICAO airport designator
Station Type Date Time Source
EHRD METAR 2019/02/23 02:55 UTC NOAA

EHRD 230255Z AUTO 11005KT 4200 BR NCD 07/06 Q1037 NOSIG


Station Type Date Time Source
EHRD Decoded METAR 2019/02/23 02:55 UTC NOAA

Rotterdam Airport Zestienhoven, Netherlands (EHRD) 51-57N 004-27E -4M
Feb 22, 2019 - 09:55 PM EST / 2019.02.23 0255 UTC
Wind: from the ESE (110 degrees) at 6 MPH (5 KT):0
Visibility: 2 mile(s):0
Weather: mist
Temperature: 44 F (7 C)
Dew Point: 42 F (6 C)
Relative Humidity: 93%
Pressure (altimeter): 30.62 in. Hg (1037 hPa)
ob: EHRD 230255Z AUTO 11005KT 4200 BR NCD 07/06 Q1037 NOSIG
cycle: 3

Station Type Date Time Source
EHRD TAF 2019/02/22 18:27 UTC NOAA

TAF EHRD 221701Z 2218/2324 11006KT 9999 BKN018
BECMG 2221/2224 CAVOK
BECMG 2222/2301 4000 BR PROB30 2301/2308 2000
BECMG 2307/2310 14009KT CAVOK


Example: see airport list